This is the latest recevied weather packets stored in our database for station/object VK2BLR. If no packets are shown the sender has not sent any weather packets the latest 10 day(s).
| Time | Temp. | Humidity | Pressure | Rain* | Wind** | Luminosity | Snow |
|---|---|---|---|---|---|---|---|
| 1778028814 | 19.44° C | 53% | 1018.5 hPa | 0 mm | - | - | - |
| 1778027914 | 19.44° C | 53% | 1018.5 hPa | 0 mm | - | - | - |
| 1778027013 | 18.89° C | 54% | 1018.8 hPa | 0 mm | - | - | - |
| 1778026114 | 18.89° C | 54% | 1018.8 hPa | 0 mm | - | - | - |
| 1778025213 | 18.89° C | 53% | 1018.7 hPa | 0 mm | - | - | - |
| 1778024313 | 18.89° C | 51% | 1018.7 hPa | 0 mm | - | - | - |
| 1778023413 | 18.89° C | 52% | 1018.7 hPa | 0 mm | - | - | - |
| 1778022513 | 18.33° C | 54% | 1018.6 hPa | 0 mm | - | - | - |
| 1778021613 | 17.78° C | 56% | 1018.6 hPa | 0 mm | - | - | - |
| 1778020713 | 16.67° C | 61% | 1018.5 hPa | 0 mm | - | - | - |
| 1778019813 | 16.11° C | 65% | 1018.5 hPa | 0 mm | - | - | - |
| 1778018914 | 14.44° C | 71% | 1018.4 hPa | 0 mm | - | - | - |
| 1778018014 | 12.22° C | 83% | 1018.3 hPa | 0 mm | - | - | - |
| 1778017112 | 9.44° C | 88% | 1018.1 hPa | 0 mm | - | - | - |
| 1778016214 | 7.22° C | 89% | 1017.9 hPa | 0 mm | - | - | - |
| 1778015313 | 6.67° C | 89% | 1018 hPa | 0 mm | - | - | - |
| 1778014413 | 6.67° C | 88% | 1017.8 hPa | 0 mm | - | - | - |
| 1778013512 | 6.67° C | 88% | 1017.7 hPa | 0 mm | - | - | - |
| 1778012614 | 6.67° C | 89% | 1017.6 hPa | 0 mm | - | - | - |
| 1778011714 | 6.67° C | 89% | 1017.6 hPa | 0 mm | - | - | - |
| 1778010813 | 6.67° C | 88% | 1017.7 hPa | 0 mm | - | - | - |
| 1778009913 | 7.22° C | 88% | 1017.6 hPa | 0 mm | - | - | - |
| 1778009014 | 7.22° C | 88% | 1017.7 hPa | 0 mm | - | - | - |
| 1778008113 | 7.22° C | 88% | 1017.7 hPa | 0 mm | - | - | - |
| 1778007212 | 7.22° C | 88% | 1017.9 hPa | 0 mm | - | - | - |
* Rain latest hour (hover to see other rain measurements)
** Current wind speed in m/s (hover to see current wind gust speed)